Time,TemperatureF,DewpointF,PressureIn,WindDirection,WindDirectionDegrees,WindSpeedMPH,WindSpeedGustMPH,Humidity,HourlyPrecipIn,Conditions,Clouds,dailyrainin,SolarRadiationWatts/m^2,SoftwareType,DateUTC
2013-06-20 00:05:00,64.0,50.7,29.96,WNW,286,2.0,3.0,62,0.00,,,0.00,0,Wunderground v.1.15,2013-06-19 22:05:00,
2013-06-20 00:10:00,63.9,51.1,29.96,WNW,286,2.0,3.0,63,0.00,,,0.00,0,Wunderground v.1.15,2013-06-19 22:10:00,
2013-06-20 00:25:00,63.7,50.4,29.96,WNW,286,1.0,1.0,62,0.00,,,0.00,0,Wunderground v.1.15,2013-06-19 22:25:00,
2013-06-20 00:35:00,63.7,50.9,29.96,WNW,286,0.0,0.0,63,0.00,,,0.00,0,Wunderground v.1.15,2013-06-19 22:35:00,
2013-06-20 00:45:00,63.4,50.1,29.95,WNW,286,1.0,1.0,62,0.00,,,0.00,0,Wunderground v.1.15,2013-06-19 22:45:00,
2013-06-20 01:05:00,63.0,49.3,29.96,WNW,289,2.0,2.0,61,0.00,,,0.00,0,Wunderground v.1.15,2013-06-19 23:05:00,
2013-06-20 01:15:00,63.1,49.9,29.96,WNW,289,0.0,2.0,62,0.00,,,0.00,0,Wunderground v.1.15,2013-06-19 23:15:00,
2013-06-20 01:25:00,63.1,49.9,29.96,WNW,284,1.0,2.0,62,0.00,,,0.00,0,Wunderground v.1.15,2013-06-19 23:25:00,
2013-06-20 01:40:00,63.2,50.0,29.96,WNW,284,1.0,1.0,62,0.00,,,0.00,0,Wunderground v.1.15,2013-06-19 23:40:00,
2013-06-20 01:50:00,63.1,49.4,29.96,WNW,285,1.0,1.0,61,0.00,,,0.00,0,Wunderground v.1.15,2013-06-19 23:50:00,
2013-06-20 02:05:00,63.0,49.8,29.96,WNW,285,0.0,0.0,62,0.00,,,0.00,0,Wunderground v.1.15,2013-06-20 00:05:00,
2013-06-20 02:16:00,62.8,49.6,29.96,WNW,285,0.0,0.0,62,0.00,,,0.00,0,Wunderground v.1.15,2013-06-20 00:16:00,
2013-06-20 02:26:00,62.3,49.1,29.95,WNW,285,1.0,1.0,62,0.00,,,0.00,0,Wunderground v.1.15,2013-06-20 00:26:00,
2013-06-20 02:35:00,61.9,48.7,29.95,WNW,284,1.0,2.0,62,0.00,,,0.00,0,Wunderground v.1.15,2013-06-20 00:35:00,
2013-06-20 02:40:00,61.8,48.6,29.95,WNW,284,1.0,1.0,62,0.00,,,0.00,0,Wunderground v.1.15,2013-06-20 00:40:00,
2013-06-20 02:55:00,61.6,48.9,29.95,WNW,284,2.0,3.0,63,0.00,,,0.00,0,Wunderground v.1.15,2013-06-20 00:55:00,
2013-06-20 03:05:00,61.9,49.2,29.94,WNW,284,1.0,3.0,63,0.00,,,0.00,0,Wunderground v.1.15,2013-06-20 01:05:00,
2013-06-20 03:10:00,62.0,49.7,29.94,WNW,284,2.0,3.0,64,0.00,,,0.00,0,Wunderground v.1.15,2013-06-20 01:10:00,
2013-06-20 03:20:00,62.2,49.9,29.95,WNW,284,1.0,1.0,64,0.00,,,0.00,0,Wunderground v.1.15,2013-06-20 01:20:00,
2013-06-20 03:30:00,62.2,49.9,29.95,WNW,284,1.0,1.0,64,0.00,,,0.00,0,Wunderground v.1.15,2013-06-20 01:30:00,
2013-06-20 03:35:00,62.1,49.8,29.95,WNW,284,1.0,1.0,64,0.00,,,0.00,0,Wunderground v.1.15,2013-06-20 01:35:00,
2013-06-20 03:50:00,61.9,50.0,29.95,WSW,256,1.0,2.0,65,0.00,,,0.00,0,Wunderground v.1.15,2013-06-20 01:50:00,
2013-06-20 04:10:00,61.6,50.1,29.95,SSE,149,0.0,0.0,66,0.00,,,0.00,0,Wunderground v.1.15,2013-06-20 02:10:00,
2013-06-20 04:20:00,61.4,49.9,29.95,SSE,149,0.0,0.0,66,0.00,,,0.00,0,Wunderground v.1.15,2013-06-20 02:20:00,
2013-06-20 04:30:00,61.3,50.2,29.95,SSE,149,0.0,0.0,67,0.00,,,0.00,0,Wunderground v.1.15,2013-06-20 02:30:00,
2013-06-20 04:45:00,61.1,50.1,29.95,SSE,149,0.0,0.0,67,0.00,,,0.00,0,Wunderground v.1.15,2013-06-20 02:45:00,
2013-06-20 04:55:00,60.9,50.3,29.95,SSE,161,1.0,1.0,68,0.00,,,0.00,0,Wunderground v.1.15,2013-06-20 02:55:00,
2013-06-20 05:05:00,60.8,50.2,29.95,SSE,161,0.0,2.0,68,0.00,,,0.00,0,Wunderground v.1.15,2013-06-20 03:05:00,
2013-06-20 05:20:00,60.8,50.6,29.95,SSE,161,1.0,1.0,69,0.00,,,0.00,0,Wunderground v.1.15,2013-06-20 03:20:00,
2013-06-20 05:30:00,60.7,50.5,29.95,SSE,161,0.0,0.0,69,0.00,,,0.00,0,Wunderground v.1.15,2013-06-20 03:30:00,
2013-06-20 05:45:00,60.6,50.8,29.96,South,171,2.0,3.0,70,0.00,,,0.00,0,Wunderground v.1.15,2013-06-20 03:45:00,
2013-06-20 05:55:00,60.5,51.0,29.96,West,264,2.0,2.0,71,0.00,,,0.00,0,Wunderground v.1.15,2013-06-20 03:55:00,
2013-06-20 06:10:00,60.7,51.2,29.96,West,264,1.0,1.0,71,0.00,,,0.00,0,Wunderground v.1.15,2013-06-20 04:10:00,
2013-06-20 06:15:00,60.7,51.2,29.96,West,264,1.0,1.0,71,0.00,,,0.00,0,Wunderground v.1.15,2013-06-20 04:15:00,
2013-06-20 06:20:00,60.8,51.3,29.96,West,264,1.0,1.0,71,0.00,,,0.00,0,Wunderground v.1.15,2013-06-20 04:20:00,
2013-06-20 06:25:00,60.8,51.3,29.96,West,264,0.0,1.0,71,0.00,,,0.00,7,Wunderground v.1.15,2013-06-20 04:25:00,
2013-06-20 06:35:00,60.7,51.2,29.96,West,264,0.0,0.0,71,0.00,,,0.00,11,Wunderground v.1.15,2013-06-20 04:35:00,
2013-06-20 06:45:00,60.8,51.3,29.96,West,264,0.0,2.0,71,0.00,,,0.00,16,Wunderground v.1.15,2013-06-20 04:45:00,
2013-06-20 07:05:00,60.8,51.3,29.96,West,264,0.0,0.0,71,0.00,,,0.00,84,Wunderground v.1.15,2013-06-20 05:05:00,
2013-06-20 07:10:00,60.9,51.4,29.96,West,264,0.0,0.0,71,0.00,,,0.00,84,Wunderground v.1.15,2013-06-20 05:10:00,
2013-06-20 07:25:00,61.4,52.3,29.96,West,264,0.0,0.0,72,0.00,,,0.00,134,Wunderground v.1.15,2013-06-20 05:25:00,
2013-06-20 07:35:00,62.3,53.5,29.96,West,262,0.0,1.0,73,0.00,,,0.00,162,Wunderground v.1.15,2013-06-20 05:35:00,
2013-06-20 07:41:00,62.5,53.3,29.96,SSE,163,1.0,2.0,72,0.00,,,0.00,176,Wunderground v.1.15,2013-06-20 05:41:00,
2013-06-20 07:51:00,63.0,53.8,29.96,SSE,163,1.0,2.0,72,0.00,,,0.00,202,Wunderground v.1.15,2013-06-20 05:51:00,
2013-06-20 08:05:00,64.4,55.2,29.97,SSE,163,0.0,0.0,72,0.00,,,0.00,251,Wunderground v.1.15,2013-06-20 06:05:00,
2013-06-20 08:11:00,65.0,55.4,29.97,SSE,163,0.0,0.0,71,0.00,,,0.00,265,Wunderground v.1.15,2013-06-20 06:11:00,
2013-06-20 08:25:00,67.2,57.1,29.97,SSE,163,1.0,2.0,70,0.00,,,0.00,309,Wunderground v.1.15,2013-06-20 06:25:00,
2013-06-20 08:35:00,68.9,57.5,29.97,ESE,121,2.0,4.0,67,0.00,,,0.00,341,Wunderground v.1.15,2013-06-20 06:35:00,
2013-06-20 08:45:00,69.8,57.9,29.97,South,171,4.0,4.0,66,0.00,,,0.00,374,Wunderground v.1.15,2013-06-20 06:45:00,
2013-06-20 08:55:00,70.2,58.3,29.98,SSE,168,4.0,4.0,66,0.00,,,0.00,403,Wunderground v.1.15,2013-06-20 06:55:00,
2013-06-20 09:05:00,70.5,57.7,29.97,SE,142,4.0,5.0,64,0.00,,,0.00,436,Wunderground v.1.15,2013-06-20 07:05:00,
2013-06-20 09:15:00,70.6,56.5,29.97,SSW,194,5.0,5.0,61,0.00,,,0.00,468,Wunderground v.1.15,2013-06-20 07:15:00,
2013-06-20 09:26:00,71.1,56.0,29.98,SSW,207,5.0,7.0,59,0.00,,,0.00,497,Wunderground v.1.15,2013-06-20 07:26:00,
2013-06-20 09:35:00,71.6,56.5,29.98,SW,222,5.0,5.0,59,0.00,,,0.00,526,Wunderground v.1.15,2013-06-20 07:35:00,
2013-06-20 09:45:00,72.0,56.4,29.98,South,182,6.0,6.0,58,0.00,,,0.00,559,Wunderground v.1.15,2013-06-20 07:45:00,
2013-06-20 09:50:00,72.5,56.4,29.98,SW,215,5.0,6.0,57,0.00,,,0.00,573,Wunderground v.1.15,2013-06-20 07:50:00,
2013-06-20 10:05:00,73.1,56.5,29.98,SSE,158,5.0,5.0,56,0.00,,,0.00,612,Wunderground v.1.15,2013-06-20 08:05:00,
2013-06-20 10:11:00,73.3,56.7,29.98,SSW,211,5.0,7.0,56,0.00,,,0.00,628,Wunderground v.1.15,2013-06-20 08:11:00,
2013-06-20 10:21:00,73.6,56.4,29.98,SW,229,5.0,5.0,55,0.00,,,0.00,656,Wunderground v.1.15,2013-06-20 08:21:00,
2013-06-20 10:31:00,74.2,57.5,29.98,SW,214,5.0,7.0,56,0.00,,,0.00,680,Wunderground v.1.15,2013-06-20 08:31:00,
2013-06-20 10:41:00,74.5,58.8,29.98,South,188,5.0,9.0,58,0.00,,,0.00,701,Wunderground v.1.15,2013-06-20 08:41:00,
2013-06-20 10:51:00,75.0,59.7,29.98,SSW,194,5.0,5.0,59,0.00,,,0.00,728,Wunderground v.1.15,2013-06-20 08:51:00,
2013-06-20 11:05:00,75.5,59.2,29.99,SW,232,5.0,8.0,57,0.00,,,0.00,768,Wunderground v.1.15,2013-06-20 09:05:00,
2013-06-20 11:15:00,75.4,59.1,29.99,WSW,244,6.0,6.0,57,0.00,,,0.00,788,Wunderground v.1.15,2013-06-20 09:15:00,
2013-06-20 11:26:00,75.4,59.6,29.99,South,190,6.0,6.0,58,0.00,,,0.00,812,Wunderground v.1.15,2013-06-20 09:26:00,
2013-06-20 11:35:00,76.1,60.2,29.98,SW,217,5.0,6.0,58,0.00,,,0.00,833,Wunderground v.1.15,2013-06-20 09:35:00,
2013-06-20 11:46:00,76.9,61.0,29.99,South,184,4.0,6.0,58,0.00,,,0.00,847,Wunderground v.1.15,2013-06-20 09:46:00,
2013-06-20 11:55:00,77.2,60.8,29.98,South,172,5.0,5.0,57,0.00,,,0.00,868,Wunderground v.1.15,2013-06-20 09:55:00,
2013-06-20 12:05:00,77.4,61.0,29.99,SSW,196,5.0,5.0,57,0.00,,,0.00,891,Wunderground v.1.15,2013-06-20 10:05:00,
2013-06-20 12:11:00,77.3,61.4,29.98,SW,226,6.0,9.0,58,0.00,,,0.00,900,Wunderground v.1.15,2013-06-20 10:11:00,
2013-06-20 12:25:00,76.8,61.9,29.98,South,170,7.0,7.0,60,0.00,,,0.00,919,Wunderground v.1.15,2013-06-20 10:25:00,
2013-06-20 12:35:00,77.3,61.4,29.98,SSE,167,6.0,6.0,58,0.00,,,0.00,921,Wunderground v.1.15,2013-06-20 10:35:00,
2013-06-20 12:46:00,77.5,61.6,29.98,SSE,159,6.0,6.0,58,0.00,,,0.00,958,Wunderground v.1.15,2013-06-20 10:46:00,
2013-06-20 12:56:00,77.9,61.9,29.98,SSW,212,6.0,6.0,58,0.00,,,0.00,956,Wunderground v.1.15,2013-06-20 10:56:00,
2013-06-20 13:05:00,77.7,61.7,29.98,SW,234,7.0,7.0,58,0.00,,,0.00,995,Wunderground v.1.15,2013-06-20 11:05:00,
2013-06-20 13:10:00,77.9,61.9,29.98,SSW,207,6.0,7.0,58,0.00,,,0.00,1002,Wunderground v.1.15,2013-06-20 11:10:00,
2013-06-20 13:20:00,78.2,62.2,29.98,SE,132,7.0,7.0,58,0.00,,,0.00,1023,Wunderground v.1.15,2013-06-20 11:20:00,
2013-06-20 13:35:00,79.0,62.0,29.99,SW,234,6.0,6.0,56,0.00,,,0.00,1044,Wunderground v.1.15,2013-06-20 11:35:00,
2013-06-20 13:45:00,79.3,62.7,29.99,South,187,5.0,7.0,57,0.00,,,0.00,1039,Wunderground v.1.15,2013-06-20 11:45:00,
2013-06-20 13:55:00,79.5,62.4,29.99,SW,218,6.0,7.0,56,0.00,,,0.00,1049,Wunderground v.1.15,2013-06-20 11:55:00,
2013-06-20 14:06:00,79.4,62.3,29.98,South,172,6.0,7.0,56,0.00,,,0.00,1000,Wunderground v.1.15,2013-06-20 12:06:00,
2013-06-20 14:16:00,79.4,62.3,29.98,SSW,192,6.0,6.0,56,0.00,,,0.00,995,Wunderground v.1.15,2013-06-20 12:16:00,
2013-06-20 14:25:00,79.7,62.6,29.98,SSE,159,5.0,8.0,56,0.00,,,0.00,990,Wunderground v.1.15,2013-06-20 12:25:00,
2013-06-20 14:30:00,79.8,62.2,29.98,SSW,193,5.0,6.0,55,0.00,,,0.00,998,Wunderground v.1.15,2013-06-20 12:30:00,
2013-06-20 14:40:00,80.6,62.9,29.98,SSE,157,5.0,5.0,55,0.00,,,0.00,977,Wunderground v.1.15,2013-06-20 12:40:00,
2013-06-20 14:55:00,80.9,62.2,29.98,SSE,151,5.0,5.0,53,0.00,,,0.00,1051,Wunderground v.1.15,2013-06-20 12:55:00,
2013-06-20 15:10:00,80.9,62.2,29.98,SSE,163,6.0,6.0,53,0.00,,,0.00,1041,Wunderground v.1.15,2013-06-20 13:10:00,
2013-06-20 15:25:00,81.2,61.9,29.98,South,176,4.0,5.0,52,0.00,,,0.00,1020,Wunderground v.1.15,2013-06-20 13:25:00,
2013-06-20 15:35:00,81.0,61.2,29.98,SE,134,6.0,6.0,51,0.00,,,0.00,979,Wunderground v.1.15,2013-06-20 13:35:00,
2013-06-20 15:45:00,80.8,61.0,29.98,SSE,151,4.0,4.0,51,0.00,,,0.00,1021,Wunderground v.1.15,2013-06-20 13:45:00,
2013-06-20 15:51:00,80.7,60.9,29.98,East,90,4.0,5.0,51,0.00,,,0.00,1000,Wunderground v.1.15,2013-06-20 13:51:00,
2013-06-20 16:10:00,78.7,60.7,29.99,NE,55,3.0,5.0,54,0.00,,,0.00,193,Wunderground v.1.15,2013-06-20 14:10:00,
2013-06-20 16:21:00,77.7,60.2,29.99,ESE,119,3.0,5.0,55,0.00,,,0.00,165,Wunderground v.1.15,2013-06-20 14:21:00,
2013-06-20 16:31:00,76.8,59.9,29.99,East,98,3.0,5.0,56,0.00,,,0.00,114,Wunderground v.1.15,2013-06-20 14:31:00,
2013-06-20 16:40:00,76.1,60.2,29.99,NE,38,2.0,5.0,58,0.00,,,0.00,134,Wunderground v.1.15,2013-06-20 14:40:00,
2013-06-20 16:46:00,76.0,60.2,29.99,East,91,1.0,2.0,58,0.00,,,0.00,134,Wunderground v.1.15,2013-06-20 14:46:00,
2013-06-20 16:55:00,75.5,60.2,29.99,ESE,111,3.0,5.0,59,0.00,,,0.00,232,Wunderground v.1.15,2013-06-20 14:55:00,
2013-06-20 17:05:00,75.4,60.5,29.99,NNE,22,2.0,2.0,60,0.00,,,0.00,283,Wunderground v.1.15,2013-06-20 15:05:00,
2013-06-20 17:20:00,76.3,60.9,29.99,ESE,113,3.0,3.0,59,0.00,,,0.00,251,Wunderground v.1.15,2013-06-20 15:20:00,
2013-06-20 17:30:00,76.9,61.0,29.99,NE,40,2.0,4.0,58,0.00,,,0.00,738,Wunderground v.1.15,2013-06-20 15:30:00,
2013-06-20 17:45:00,76.4,60.5,29.99,NE,56,2.0,3.0,58,0.00,,,0.00,125,Wunderground v.1.15,2013-06-20 15:45:00,
2013-06-20 18:05:00,75.7,60.4,29.99,East,80,1.0,1.0,59,0.00,,,0.00,629,Wunderground v.1.15,2013-06-20 16:05:00,
2013-06-20 18:15:00,75.6,60.7,29.99,NE,34,2.0,2.0,60,0.00,,,0.00,118,Wunderground v.1.15,2013-06-20 16:15:00,
2013-06-20 18:25:00,75.2,60.4,29.98,NE,44,1.0,1.0,60,0.00,,,0.00,98,Wunderground v.1.15,2013-06-20 16:25:00,
2013-06-20 18:40:00,74.8,60.4,29.98,ENE,61,2.0,2.0,61,0.00,,,0.00,83,Wunderground v.1.15,2013-06-20 16:40:00,
2013-06-20 18:50:00,74.7,60.4,29.99,ENE,67,2.0,2.0,61,0.00,,,0.00,406,Wunderground v.1.15,2013-06-20 16:50:00,
2013-06-20 19:05:00,75.2,60.4,29.99,SE,130,1.0,3.0,60,0.00,,,0.00,104,Wunderground v.1.15,2013-06-20 17:05:00,
2013-06-20 19:15:00,75.3,60.5,29.99,East,100,2.0,6.0,60,0.00,,,0.00,200,Wunderground v.1.15,2013-06-20 17:15:00,
2013-06-20 19:26:00,75.2,59.9,29.99,East,95,2.0,2.0,59,0.00,,,0.00,65,Wunderground v.1.15,2013-06-20 17:26:00,
2013-06-20 19:40:00,74.8,60.0,29.99,East,101,3.0,5.0,60,0.00,,,0.00,32,Wunderground v.1.15,2013-06-20 17:40:00,
2013-06-20 19:55:00,74.1,60.2,30.00,East,99,3.0,3.0,62,0.00,,,0.00,56,Wunderground v.1.15,2013-06-20 17:55:00,
2013-06-20 20:06:00,73.8,60.4,30.00,NE,38,2.0,2.0,63,0.00,,,0.00,47,Wunderground v.1.15,2013-06-20 18:06:00,
2013-06-20 20:15:00,73.6,60.2,30.00,NW,323,1.0,2.0,63,0.00,,,0.00,62,Wunderground v.1.15,2013-06-20 18:15:00,
2013-06-20 20:21:00,73.6,60.2,30.00,ENE,59,1.0,1.0,63,0.00,,,0.00,53,Wunderground v.1.15,2013-06-20 18:21:00,
2013-06-20 20:35:00,73.1,59.8,30.01,North,355,2.0,2.0,63,0.00,,,0.00,37,Wunderground v.1.15,2013-06-20 18:35:00,
2013-06-20 20:46:00,72.7,59.4,30.01,NNE,18,1.0,1.0,63,0.00,,,0.00,19,Wunderground v.1.15,2013-06-20 18:46:00,
2013-06-20 20:55:00,72.4,59.1,30.01,NNE,29,1.0,1.0,63,0.00,,,0.00,16,Wunderground v.1.15,2013-06-20 18:55:00,
2013-06-20 21:05:00,72.2,59.3,30.01,NNE,28,0.0,0.0,64,0.00,,,0.00,11,Wunderground v.1.15,2013-06-20 19:05:00,
2013-06-20 21:20:00,71.7,59.3,30.01,NNE,27,1.0,1.0,65,0.00,,,0.00,0,Wunderground v.1.15,2013-06-20 19:20:00,
2013-06-20 21:35:00,71.3,58.9,30.01,NNE,26,0.0,1.0,65,0.00,,,0.00,0,Wunderground v.1.15,2013-06-20 19:35:00,
2013-06-20 21:46:00,70.8,58.9,30.02,NNE,26,1.0,1.0,66,0.00,,,0.00,0,Wunderground v.1.15,2013-06-20 19:46:00,
2013-06-20 21:55:00,70.3,58.8,30.02,NNE,27,1.0,1.0,67,0.00,,,0.00,0,Wunderground v.1.15,2013-06-20 19:55:00,
2013-06-20 22:05:00,69.7,58.3,30.02,NNE,26,1.0,2.0,67,0.00,,,0.00,0,Wunderground v.1.15,2013-06-20 20:05:00,
2013-06-20 22:20:00,68.9,57.9,30.03,NNE,26,1.0,2.0,68,0.00,,,0.00,0,Wunderground v.1.15,2013-06-20 20:20:00,
2013-06-20 22:35:00,68.2,57.6,30.04,SSE,161,1.0,1.0,69,0.00,,,0.00,0,Wunderground v.1.15,2013-06-20 20:35:00,
2013-06-20 22:45:00,67.8,57.7,30.05,SSE,161,1.0,1.0,70,0.00,,,0.00,0,Wunderground v.1.15,2013-06-20 20:45:00,
2013-06-20 22:55:00,67.4,57.3,30.05,SSE,161,1.0,1.0,70,0.00,,,0.00,0,Wunderground v.1.15,2013-06-20 20:55:00,
2013-06-20 23:05:00,67.0,57.3,30.06,SSE,161,1.0,1.0,71,0.00,,,0.00,0,Wunderground v.1.15,2013-06-20 21:05:00,
2013-06-20 23:20:00,66.5,57.6,30.06,West,281,1.0,3.0,73,0.00,,,0.00,0,Wunderground v.1.15,2013-06-20 21:20:00,
2013-06-20 23:30:00,66.3,57.8,30.06,West,281,3.0,3.0,74,0.00,,,0.00,0,Wunderground v.1.15,2013-06-20 21:30:00,
2013-06-20 23:40:00,65.9,57.4,30.06,WSW,252,3.0,5.0,74,0.00,,,0.00,0,Wunderground v.1.15,2013-06-20 21:40:00,
2013-06-20 23:50:00,65.7,57.6,30.05,West,275,3.0,3.0,75,0.00,,,0.00,0,Wunderground v.1.15,2013-06-20 21:50:00,
2013-06-20 23:55:00,65.7,57.6,30.05,West,275,1.0,3.0,75,0.00,,,0.00,0,Wunderground v.1.15,2013-06-20 21:55:00,